Terminal Aerodrome Forecast
Issued by NWS Northern Indiana

Home | Current Version | Previous Version | Graphics & Text | Print | Product List | Glossary On
Versions: 1 2 3 4 5 6 7 8 9 10 11 12 13
000
FTUS43 KIWX 210521
TAFFWA
TAF
KFWA 210521Z 2106/2206 30010KT P6SM SCT035
      TEMPO 2107/2111 BKN025
     FM211700 31010KT P6SM BKN035
     FM220100 36007KT P6SM BKN070=

USA.gov is the U.S. government's official web portal to all federal, state and local government web resources and services.